createdAt,value
2022-10-19T00:02:00.863Z,14.15
2022-10-19T00:04:32.699Z,14.12
2022-10-19T00:07:07.039Z,14.09
2022-10-19T00:09:38.901Z,14.08
2022-10-19T00:12:13.559Z,14.06
2022-10-19T00:14:46.423Z,14.03
2022-10-19T00:17:19.865Z,14.01
2022-10-19T00:19:52.234Z,13.98
2022-10-19T00:22:23.955Z,13.95
2022-10-19T00:24:58.072Z,13.91
2022-10-19T00:27:30.086Z,13.88
2022-10-19T00:30:02.071Z,13.84
2022-10-19T00:32:34.332Z,13.81
2022-10-19T00:35:07.410Z,13.79
2022-10-19T00:37:40.517Z,13.76
2022-10-19T00:40:12.720Z,13.75
2022-10-19T00:42:44.961Z,13.71
2022-10-19T00:45:18.032Z,13.69
2022-10-19T00:47:49.969Z,13.65
2022-10-19T00:50:22.058Z,13.60
2022-10-19T00:52:55.400Z,13.56
2022-10-19T00:55:27.338Z,13.54
2022-10-19T00:57:59.136Z,13.53
2022-10-19T01:00:32.604Z,13.50
2022-10-19T01:03:04.475Z,13.49
2022-10-19T01:05:36.807Z,13.47
2022-10-19T01:08:10.209Z,13.43
2022-10-19T01:11:00.579Z,13.40
2022-10-19T01:13:52.363Z,13.37
2022-10-19T01:16:29.950Z,13.34
2022-10-19T01:19:20.561Z,13.31
2022-10-19T01:22:18.784Z,13.28
2022-10-19T01:24:57.540Z,13.25
2022-10-19T01:27:35.886Z,13.23
2022-10-19T01:30:31.597Z,13.23
2022-10-19T01:33:17.137Z,13.20
2022-10-19T01:35:51.931Z,13.21
2022-10-19T01:38:33.578Z,13.20
2022-10-19T01:41:23.586Z,13.17
2022-10-19T01:44:23.161Z,13.15
2022-10-19T01:46:58.138Z,13.15
2022-10-19T01:49:52.452Z,13.12
2022-10-19T01:52:26.119Z,13.11
2022-10-19T01:55:00.333Z,13.08
2022-10-19T01:57:35.240Z,13.07
2022-10-19T02:00:08.305Z,13.05
2022-10-19T02:02:49.937Z,13.03
2022-10-19T02:05:27.513Z,13.01
2022-10-19T02:08:04.940Z,13.00
2022-10-19T02:10:38.227Z,12.97
2022-10-19T02:13:10.740Z,12.95
2022-10-19T02:15:44.508Z,12.93
2022-10-19T02:18:18.602Z,12.92
2022-10-19T02:20:50.484Z,12.90
2022-10-19T02:23:23.232Z,12.89
2022-10-19T02:25:55.308Z,12.88
2022-10-19T02:28:28.951Z,12.86
2022-10-19T02:31:00.906Z,12.85
2022-10-19T02:33:32.798Z,12.82
2022-10-19T02:36:05.321Z,12.80
2022-10-19T02:38:37.374Z,12.78
2022-10-19T02:41:18.343Z,12.77
2022-10-19T02:43:51.954Z,12.76
2022-10-19T02:46:43.674Z,12.74
2022-10-19T02:49:15.603Z,12.74
2022-10-19T02:51:59.408Z,12.73
2022-10-19T02:54:34.982Z,12.71
2022-10-19T02:57:25.668Z,12.71
2022-10-19T02:59:58.246Z,12.69
2022-10-19T03:02:30.172Z,12.68
2022-10-19T03:05:01.993Z,12.65
2022-10-19T03:07:35.054Z,12.65
2022-10-19T03:10:10.157Z,12.63
2022-10-19T03:12:41.895Z,12.61
2022-10-19T03:15:17.233Z,12.60
2022-10-19T03:17:49.001Z,12.60
2022-10-19T03:20:21.539Z,12.61
2022-10-19T03:25:27.105Z,12.63
2022-10-19T03:27:58.520Z,12.63
2022-10-19T03:30:33.477Z,12.66
2022-10-19T03:33:05.273Z,12.66
2022-10-19T03:35:37.059Z,12.66
2022-10-19T03:38:08.985Z,12.68
2022-10-19T03:40:42.499Z,12.70
2022-10-19T03:43:14.768Z,12.70
2022-10-19T03:45:48.340Z,12.73
2022-10-19T03:48:20.855Z,12.72
2022-10-19T03:51:04.921Z,12.72
2022-10-19T03:53:38.593Z,12.74
2022-10-19T03:56:35.761Z,12.72
2022-10-19T03:59:07.823Z,12.75
2022-10-19T04:01:41.296Z,12.77
2022-10-19T04:04:19.877Z,12.76
2022-10-19T04:06:53.971Z,12.77
2022-10-19T04:09:25.636Z,12.78
2022-10-19T04:11:57.513Z,12.80
2022-10-19T04:14:39.240Z,12.83
2022-10-19T04:17:08.648Z,12.86
2022-10-19T04:19:40.463Z,12.90
2022-10-19T04:22:13.491Z,12.93
2022-10-19T04:24:45.740Z,12.92
2022-10-19T04:27:17.707Z,12.90
2022-10-19T04:29:50.231Z,12.90
2022-10-19T04:32:21.980Z,12.92
2022-10-19T04:34:54.642Z,12.95
2022-10-19T04:37:26.766Z,12.96
2022-10-19T04:39:58.577Z,12.97
2022-10-19T04:42:30.441Z,12.95
2022-10-19T04:45:02.499Z,12.99
2022-10-19T04:47:34.641Z,13.02
2022-10-19T04:50:07.317Z,13.05
2022-10-19T04:52:39.724Z,13.00
2022-10-19T04:55:12.408Z,12.95
2022-10-19T04:57:44.314Z,12.95
2022-10-19T05:00:16.709Z,12.99
2022-10-19T05:02:49.194Z,13.01
2022-10-19T05:05:21.046Z,13.00
2022-10-19T05:07:53.381Z,13.02
2022-10-19T05:10:25.830Z,13.07
2022-10-19T05:13:02.755Z,13.09
2022-10-19T05:15:35.505Z,13.12
2022-10-19T05:18:07.467Z,13.12
2022-10-19T05:20:39.344Z,13.12
2022-10-19T05:23:12.007Z,13.12
2022-10-19T05:25:43.828Z,13.13
2022-10-19T05:28:15.743Z,13.13
2022-10-19T05:30:50.371Z,13.12
2022-10-19T05:33:22.272Z,13.15
2022-10-19T05:35:54.037Z,13.17
2022-10-19T05:38:25.951Z,13.18
2022-10-19T05:40:57.745Z,13.20
2022-10-19T05:43:29.784Z,13.22
2022-10-19T05:46:09.004Z,13.25
2022-10-19T05:48:41.749Z,13.26
2022-10-19T05:51:17.735Z,13.27
2022-10-19T05:53:49.859Z,13.30
2022-10-19T05:56:24.733Z,13.29
2022-10-19T05:59:01.064Z,13.32
2022-10-19T06:01:33.088Z,13.35
2022-10-19T06:04:07.165Z,13.38
2022-10-19T06:06:39.600Z,13.39
2022-10-19T06:09:11.467Z,13.39
2022-10-19T06:11:44.275Z,13.42
2022-10-19T06:14:16.567Z,13.42
2022-10-19T06:16:49.298Z,13.41
2022-10-19T06:19:21.048Z,13.42
2022-10-19T06:21:52.996Z,13.40
2022-10-19T06:24:25.057Z,13.45
2022-10-19T06:26:56.878Z,13.49
2022-10-19T06:29:28.582Z,13.55
2022-10-19T06:32:00.532Z,13.61
2022-10-19T06:34:33.206Z,13.66
2022-10-19T06:37:06.656Z,13.69
2022-10-19T06:39:40.692Z,13.74
2022-10-19T06:42:12.997Z,13.75
2022-10-19T06:44:45.788Z,13.74
2022-10-19T06:47:17.668Z,13.70
2022-10-19T06:49:49.947Z,13.67
2022-10-19T06:52:22.242Z,13.66
2022-10-19T06:54:54.847Z,13.65
2022-10-19T06:57:27.026Z,13.65
2022-10-19T06:59:58.951Z,13.65
2022-10-19T07:02:30.676Z,13.67
2022-10-19T07:05:06.123Z,13.71
2022-10-19T07:07:38.028Z,13.72
2022-10-19T07:10:10.438Z,13.73
2022-10-19T07:12:42.838Z,13.72
2022-10-19T07:15:15.143Z,13.73
2022-10-19T07:17:46.788Z,13.70
2022-10-19T07:20:19.269Z,13.66
2022-10-19T07:22:51.167Z,13.66
2022-10-19T07:25:23.421Z,13.73
2022-10-19T07:27:55.172Z,13.92
2022-10-19T07:30:26.822Z,14.16
2022-10-19T07:32:59.956Z,14.53
2022-10-19T07:35:31.593Z,15.09
2022-10-19T07:38:03.376Z,15.67
2022-10-19T07:40:36.757Z,16.05
2022-10-19T07:43:08.624Z,16.22
2022-10-19T07:45:40.843Z,16.30
2022-10-19T07:48:13.097Z,16.33
2022-10-19T07:50:48.893Z,16.34
2022-10-19T07:53:22.239Z,16.20
2022-10-19T07:55:53.884Z,15.94
2022-10-19T07:58:27.144Z,15.59
2022-10-19T08:01:04.545Z,15.28
2022-10-19T08:04:42.801Z,15.13
2022-10-19T08:06:11.473Z,14.95
2022-10-19T08:08:44.241Z,14.79
2022-10-19T08:11:18.346Z,14.67
2022-10-19T08:13:50.600Z,14.59
2022-10-19T08:16:34.118Z,14.54
2022-10-19T08:19:10.554Z,14.49
2022-10-19T08:21:45.185Z,14.43
2022-10-19T08:24:18.922Z,14.37
2022-10-19T08:26:51.454Z,14.34
2022-10-19T08:29:25.510Z,14.33
2022-10-19T08:31:56.994Z,14.34
2022-10-19T08:34:29.909Z,14.33
2022-10-19T08:37:10.250Z,14.33
2022-10-19T08:39:37.111Z,14.37
2022-10-19T08:42:20.653Z,14.46
2022-10-19T08:45:04.585Z,14.56
2022-10-19T08:47:49.897Z,14.67
2022-10-19T08:50:42.117Z,14.71
2022-10-19T08:53:26.043Z,14.70
2022-10-19T08:56:04.550Z,14.79
2022-10-19T08:58:48.711Z,14.86
2022-10-19T09:01:46.893Z,14.83
2022-10-19T09:04:25.505Z,14.74
2022-10-19T09:07:17.209Z,14.67
2022-10-19T09:09:56.721Z,14.68
2022-10-19T09:12:44.209Z,14.76
2022-10-19T09:15:21.629Z,14.85
2022-10-19T09:17:54.413Z,14.91
2022-10-19T09:20:44.514Z,14.99
2022-10-19T09:23:35.235Z,15.07
2022-10-19T09:26:18.914Z,15.13
2022-10-19T09:28:59.974Z,15.13
2022-10-19T09:31:38.279Z,15.14
2022-10-19T09:34:10.810Z,15.15
2022-10-19T09:36:50.857Z,15.11
2022-10-19T09:39:19.113Z,15.04
2022-10-19T09:41:59.164Z,15.12
2022-10-19T09:44:30.885Z,15.24
2022-10-19T09:47:25.344Z,15.27
2022-10-19T09:50:25.863Z,15.24
2022-10-19T09:52:58.560Z,15.13
2022-10-19T09:55:43.422Z,15.00
2022-10-19T09:58:17.999Z,14.96
2022-10-19T10:00:54.512Z,15.12
2022-10-19T10:03:40.511Z,15.76
2022-10-19T10:06:17.077Z,16.35
2022-10-19T10:08:51.000Z,16.76
2022-10-19T10:11:35.204Z,16.95
2022-10-19T10:14:10.188Z,17.06
2022-10-19T10:16:42.035Z,17.00
2022-10-19T10:19:15.732Z,16.64
2022-10-19T10:21:55.346Z,16.32
2022-10-19T10:24:29.847Z,16.16
2022-10-19T10:27:04.829Z,16.05
2022-10-19T10:29:37.700Z,15.94
2022-10-19T10:32:20.314Z,15.80
2022-10-19T10:35:03.122Z,15.79
2022-10-19T10:37:46.656Z,15.78
2022-10-19T10:40:30.618Z,15.69
2022-10-19T10:43:13.313Z,15.71
2022-10-19T10:45:48.896Z,15.72
2022-10-19T10:48:31.893Z,15.60
2022-10-19T10:51:04.256Z,15.61
2022-10-19T10:53:42.994Z,15.75
2022-10-19T10:56:29.655Z,15.89
2022-10-19T10:59:11.410Z,15.94
2022-10-19T11:01:45.632Z,16.37
2022-10-19T11:04:20.940Z,17.01
2022-10-19T11:06:59.281Z,17.34
2022-10-19T11:09:34.489Z,17.68
2022-10-19T11:12:07.124Z,17.88
2022-10-19T11:14:48.966Z,17.88
2022-10-19T11:17:25.347Z,17.66
2022-10-19T11:19:58.303Z,17.32
2022-10-19T11:22:42.068Z,17.03
2022-10-19T11:25:35.433Z,16.75
2022-10-19T11:28:22.296Z,16.56
2022-10-19T11:31:17.648Z,16.43
2022-10-19T11:33:55.977Z,16.39
2022-10-19T11:36:49.189Z,16.66
2022-10-19T11:39:34.245Z,16.84
2022-10-19T11:42:20.969Z,16.74
2022-10-19T11:45:12.362Z,16.56
2022-10-19T11:48:04.095Z,16.38
2022-10-19T11:50:54.377Z,16.16
2022-10-19T11:53:33.268Z,16.06
2022-10-19T11:56:44.800Z,15.98
2022-10-19T11:59:19.391Z,15.94
2022-10-19T12:02:04.510Z,15.94
2022-10-19T12:05:05.375Z,15.88
2022-10-19T12:07:43.291Z,15.85
2022-10-19T12:10:42.836Z,15.77
2022-10-19T12:13:17.717Z,15.67
2022-10-19T12:15:53.821Z,15.63
2022-10-19T12:18:47.444Z,15.64
2022-10-19T12:21:32.232Z,15.66
2022-10-19T12:24:05.820Z,15.70
2022-10-19T12:26:37.645Z,15.78
2022-10-19T12:29:21.528Z,15.86
2022-10-19T12:31:54.598Z,15.88
2022-10-19T12:34:33.976Z,15.84
2022-10-19T12:37:12.043Z,15.79
2022-10-19T12:40:06.806Z,15.78
2022-10-19T12:42:50.043Z,15.78
2022-10-19T12:45:35.095Z,15.79
2022-10-19T12:48:15.439Z,15.79
2022-10-19T12:50:54.227Z,15.75
2022-10-19T12:53:48.328Z,15.74
2022-10-19T12:56:25.270Z,15.78
2022-10-19T12:59:01.669Z,15.82
2022-10-19T13:01:41.171Z,15.84
2022-10-19T13:04:27.431Z,15.84
2022-10-19T13:07:02.649Z,15.79
2022-10-19T13:09:36.921Z,15.70
2022-10-19T13:12:33.110Z,15.64
2022-10-19T13:14:59.225Z,15.56
2022-10-19T13:17:48.507Z,15.51
2022-10-19T13:20:25.109Z,15.45
2022-10-19T13:23:04.087Z,15.40
2022-10-19T13:25:41.735Z,15.39
2022-10-19T13:28:17.645Z,15.36
2022-10-19T13:30:54.609Z,15.29
2022-10-19T13:33:33.503Z,15.25
2022-10-19T13:36:08.964Z,15.24
2022-10-19T13:39:00.783Z,15.27
2022-10-19T13:41:39.531Z,15.25
2022-10-19T13:44:25.030Z,15.22
2022-10-19T13:47:29.191Z,15.19
2022-10-19T13:50:10.291Z,15.17
2022-10-19T13:52:58.571Z,15.10
2022-10-19T13:55:55.507Z,15.06
2022-10-19T13:58:33.715Z,14.99
2022-10-19T14:01:27.151Z,14.95
2022-10-19T14:04:23.183Z,14.94
2022-10-19T14:07:00.096Z,14.96
2022-10-19T14:09:41.148Z,14.98
2022-10-19T14:12:24.663Z,14.99
2022-10-19T14:14:57.500Z,14.99
2022-10-19T14:17:33.419Z,14.98
2022-10-19T14:20:08.139Z,14.93
2022-10-19T14:22:41.584Z,14.85
2022-10-19T14:25:37.466Z,14.74
2022-10-19T14:28:09.375Z,14.68
2022-10-19T14:30:42.428Z,14.59
2022-10-19T14:33:17.435Z,14.52
2022-10-19T14:35:51.351Z,14.48
2022-10-19T14:38:36.887Z,14.45
2022-10-19T14:41:10.433Z,14.40
2022-10-19T14:43:42.944Z,14.37
2022-10-19T14:46:15.965Z,14.34
2022-10-19T14:48:49.878Z,14.34
2022-10-19T14:51:37.170Z,14.31
2022-10-19T14:54:32.399Z,14.27
2022-10-19T14:57:08.168Z,14.23
2022-10-19T14:59:47.959Z,14.20
2022-10-19T15:02:29.178Z,14.17
2022-10-19T15:05:02.873Z,14.16
2022-10-19T15:07:40.054Z,14.15
2022-10-19T15:10:29.352Z,14.13
2022-10-19T15:13:05.548Z,14.12
2022-10-19T15:15:38.008Z,14.11
2022-10-19T15:18:43.501Z,14.10
2022-10-19T15:21:12.148Z,14.10
2022-10-19T15:23:47.306Z,14.10
2022-10-19T15:26:28.215Z,14.06
2022-10-19T15:29:12.791Z,13.99
2022-10-19T15:31:47.263Z,13.93
2022-10-19T15:34:29.651Z,13.88
2022-10-19T15:37:03.518Z,13.85
2022-10-19T15:39:40.076Z,13.82
2022-10-19T15:42:36.689Z,13.79
2022-10-19T15:45:38.378Z,13.76
2022-10-19T15:48:18.800Z,13.75
2022-10-19T15:50:51.981Z,13.69
2022-10-19T15:53:23.894Z,13.64
2022-10-19T15:55:55.846Z,13.61
2022-10-19T15:58:27.686Z,13.57
2022-10-19T16:00:59.405Z,13.55
2022-10-19T16:03:31.687Z,13.52
2022-10-19T16:06:05.911Z,13.54
2022-10-19T16:08:38.013Z,13.53
2022-10-19T16:11:16.209Z,13.50
2022-10-19T16:13:51.883Z,13.49
2022-10-19T16:16:29.985Z,13.45
2022-10-19T16:19:01.893Z,13.44
2022-10-19T16:21:36.947Z,13.44
2022-10-19T16:24:08.704Z,13.42
2022-10-19T16:26:40.794Z,13.37
2022-10-19T16:29:25.357Z,13.33
2022-10-19T16:31:55.706Z,13.31
2022-10-19T16:34:29.055Z,13.29
2022-10-19T16:37:05.754Z,13.27
2022-10-19T16:39:39.940Z,13.27
2022-10-19T16:42:13.175Z,13.25
2022-10-19T16:44:48.269Z,13.23
2022-10-19T16:47:21.199Z,13.21
2022-10-19T16:50:00.828Z,13.22
2022-10-19T16:52:36.365Z,13.23
2022-10-19T16:55:12.042Z,13.22
2022-10-19T16:57:44.205Z,13.21
2022-10-19T17:00:19.303Z,13.20
2022-10-19T17:03:04.475Z,13.19
2022-10-19T17:05:39.259Z,13.18
2022-10-19T17:08:14.024Z,13.11
2022-10-19T17:10:47.646Z,13.10
2022-10-19T17:13:23.304Z,13.10
2022-10-19T17:15:59.907Z,13.07
2022-10-19T17:18:40.302Z,13.06
2022-10-19T17:21:24.045Z,13.00
2022-10-19T17:24:01.912Z,12.99
2022-10-19T17:26:40.931Z,12.98
2022-10-19T17:29:16.470Z,12.99
2022-10-19T17:31:53.567Z,13.00
2022-10-19T17:34:27.012Z,12.95
2022-10-19T17:37:01.628Z,12.88
2022-10-19T17:39:36.031Z,12.84
2022-10-19T17:42:12.471Z,12.82
2022-10-19T17:44:49.444Z,12.80
2022-10-19T17:47:33.970Z,12.74
2022-10-19T17:50:25.924Z,12.67
2022-10-19T17:53:02.562Z,12.59
2022-10-19T17:55:39.841Z,12.56
2022-10-19T17:58:17.562Z,12.52
2022-10-19T18:00:55.499Z,12.48
2022-10-19T18:03:28.465Z,12.43
2022-10-19T18:06:13.833Z,12.35
2022-10-19T18:08:53.789Z,12.30
2022-10-19T18:11:31.439Z,12.26
2022-10-19T18:14:07.146Z,12.19
2022-10-19T18:16:47.069Z,12.13
2022-10-19T18:19:22.603Z,12.02
2022-10-19T18:22:04.743Z,11.92
2022-10-19T18:24:48.705Z,11.86
2022-10-19T18:27:26.444Z,11.78
2022-10-19T18:30:01.825Z,11.72
2022-10-19T18:32:38.665Z,11.64
2022-10-19T18:35:15.173Z,11.62
2022-10-19T18:37:51.184Z,11.55
2022-10-19T18:40:28.725Z,11.49
2022-10-19T18:43:18.148Z,11.46
2022-10-19T18:45:59.727Z,11.49
2022-10-19T18:48:37.250Z,11.49
2022-10-19T18:51:16.459Z,11.48
2022-10-19T18:53:49.027Z,11.46
2022-10-19T18:56:23.254Z,11.44
2022-10-19T18:59:00.948Z,11.44
2022-10-19T19:01:39.293Z,11.40
2022-10-19T19:04:14.258Z,11.32
2022-10-19T19:07:01.099Z,11.27
2022-10-19T19:09:35.899Z,11.22
2022-10-19T19:12:11.698Z,11.13
2022-10-19T19:14:47.779Z,11.07
2022-10-19T19:17:20.829Z,11.07
2022-10-19T19:19:55.741Z,11.05
2022-10-19T19:22:28.402Z,11.04
2022-10-19T19:25:03.210Z,11.02
2022-10-19T19:30:10.162Z,10.94
2022-10-19T19:32:43.349Z,10.95
2022-10-19T19:35:16.806Z,10.95
2022-10-19T19:37:50.638Z,10.92
2022-10-19T19:40:25.604Z,10.90
2022-10-19T19:42:59.276Z,10.85
2022-10-19T19:45:31.109Z,10.84
2022-10-19T19:48:06.332Z,10.83
2022-10-19T19:50:38.406Z,10.82
2022-10-19T19:53:11.912Z,10.82
2022-10-19T19:55:43.924Z,10.81
2022-10-19T19:58:16.044Z,10.81
2022-10-19T20:00:47.900Z,10.79
2022-10-19T20:03:20.311Z,10.76
2022-10-19T20:05:51.971Z,10.72
2022-10-19T20:08:23.859Z,10.67
2022-10-19T20:10:56.782Z,10.65
2022-10-19T20:13:28.428Z,10.62
2022-10-19T20:16:05.163Z,10.56
2022-10-19T20:18:36.921Z,10.56
2022-10-19T20:21:10.432Z,10.56
2022-10-19T20:23:49.500Z,10.53
2022-10-19T20:26:22.936Z,10.50
2022-10-19T20:28:56.914Z,10.46
2022-10-19T20:31:29.758Z,10.44
2022-10-19T20:34:02.486Z,10.41
2022-10-19T20:36:35.947Z,10.41
2022-10-19T20:39:08.522Z,10.41
2022-10-19T20:41:41.332Z,10.40
2022-10-19T20:44:13.260Z,10.40
2022-10-19T20:46:45.843Z,10.36
2022-10-19T20:49:17.681Z,10.39
2022-10-19T20:51:50.523Z,10.40
2022-10-19T20:54:23.861Z,10.40
2022-10-19T20:56:55.513Z,10.40
2022-10-19T20:59:27.873Z,10.37
2022-10-19T21:01:59.979Z,10.33
2022-10-19T21:04:32.815Z,10.27
2022-10-19T21:07:06.029Z,10.21
2022-10-19T21:09:37.714Z,10.15
2022-10-19T21:12:09.565Z,10.08
2022-10-19T21:14:43.180Z,10.01
